Terminal Aerodrome Forecast
Issued by NWS Grand Forks, ND

Home | Current Version | Previous Version | Graphics & Text | Print | Product List | Glossary On
Versions: 1 2 3 4 5 6 7 8 9 10 11 12 13 14 15 16 17 18 19 20 21
000
FTUS43 KFGF 281700
TAFFAR
TAF
KFAR 281734Z 2818/2918 15010G17KT P6SM OVC035
      TEMPO 2819/2820 -SHRA
     FM282000 15012G18KT P6SM VCTS BKN025CB
      TEMPO 2821/2901 -TSRA
     FM290100 15008KT P6SM BKN040
     FM291000 18002KT P6SM BKN020=

USA.gov is the U.S. government's official web portal to all federal, state and local government web resources and services.